Detalii statie AGROSAMI SACALAZ [00001988]

Toti senzorii

Date Temperatura solului [C]Precipitatii [mm]Voltaj baterie [mV]Leaf Wetness [Min]HC Air temperature [C]HC Relative humidity [%]Punctul de roua [C]
medieminmaxsumaultimatimpmedieminmaxmediemediemin
2020-01-25 15:00:00 0 7294 6.2 5.98 6.38 83.39 3.4 3.1
2020-01-25 16:00:00 0 7264 7.04 6.28 7.65 80.43 3.7 3.5
2020-01-25 17:00:00 0 7186 6.38 6.14 6.64 87.29 4.2 3.7
2020-01-25 18:00:00 0 7098 5.21 4.34 6 96.47 4.5 4.3
2020-01-25 19:00:00 0 7070 4.2 3.94 4.4 100 4.1 3.9
2020-01-25 20:00:00 0 7040 3.64 2.89 4.34 100 3.6 2.8
2020-01-25 21:00:00 0 7030 2.56 1.81 2.91 100 2.5 1.8
2020-01-25 22:00:00 0 7020 1.93 0.85 3.02 100 1.8 0.8
2020-01-25 23:00:00 0 7000 0.87 0.4 1.08 100 0.8 0.4
2020-01-26 00:00:00 0 7000 0.44 0.33 0.63 100 0.4 0.3
2020-01-26 01:00:00 0 6982 0.47 -0.31 1.21 100 0.4 -0.2
2020-01-26 02:00:00 0 6992 -0.43 -1.91 0.2 100 -0.3 -1.8
2020-01-26 03:00:00 0 6972 -1.45 -2.34 -0.76 100 -1.3 -2.2
2020-01-26 04:00:00 0 6972 -0.83 -1.87 -0.11 100 -0.6 -1.7
2020-01-26 05:00:00 0 6962 -1.17 -2.01 -0.16 100 -1 -1.9
2020-01-26 06:00:00 0 6972 0.22 -0.06 0.38 100 0.1 0
2020-01-26 07:00:00 0 6952 -0.55 -1.14 0.08 100 -0.4 -1
2020-01-26 08:00:00 0 6952 -1.42 -1.67 -1.16 100 -1.2 -1.5
2020-01-26 09:00:00 0 6972 -1.04 -1.35 -0.4 100 -0.9 -1.2
2020-01-26 10:00:00 0 7166 2.4 0.05 4.64 100 2.3 0
2020-01-26 11:00:00 0 7332 7.55 5.15 9.52 93.26 6.4 5.1
2020-01-26 12:00:00 0 7324 10.7 9.63 11.5 77.68 6.7 6.5
2020-01-26 13:00:00 0 7324 12.01 10.57 12.85 74.44 7.4 6.5
2020-01-26 14:00:00 0 7324 13.04 11.92 13.74 72.83 8.1 7.6
2020-01-26 15:00:00 0 7294 12.48 11.74 13.31 75.16 8 7.7
2020-01-26 16:00:00 0 7294 12.07 11.69 12.52 78.22 8.3 7.9
2020-01-26 17:00:00 0 7216 10.48 8.81 11.78 83.12 7.5 7.3
2020-01-26 18:00:00 0 7118 6.52 5.08 8.35 98.92 6.2 5
2020-01-26 19:00:00 0 7060 4.75 4.27 5.05 100 4.7 4.2
2020-01-26 20:00:00 0 7030 3.7 3.31 4.15 100 3.6 3.3
2020-01-26 21:00:00 0 7040 2.82 1.98 3.32 100 2.7 1.9
2020-01-26 22:00:00 0 7010 1.26 1.02 1.81 100 1.2 1
2020-01-26 23:00:00 0 7010 1.29 1.18 1.37 100 1.2 1.1
2020-01-27 00:00:00 0 7000 1.52 1.28 1.93 100 1.4 1.2
2020-01-27 01:00:00 0 6992 1.51 1.46 1.66 100 1.4 1.4
2020-01-27 02:00:00 0 7000 2.21 1.77 2.6 100 2.1 1.7
2020-01-27 03:00:00 0 6992 2.7 2.57 2.82 100 2.6 2.5
2020-01-27 04:00:00 0.2 7000 3.16 2.83 3.35 100 3.1 2.8
2020-01-27 05:00:00 0 6992 3.3 3.19 3.42 100 3.2 3.1
2020-01-27 06:00:00 2 6982 3.01 2.7 3.19 100 2.9 2.7
2020-01-27 07:00:00 1.6 6982 2.7 2.65 2.74 100 2.6 2.6
2020-01-27 08:00:00 1 6962 2.5 2.41 2.6 100 2.4 2.4
2020-01-27 09:00:00 2 6932 2.67 2.56 2.76 77.02 -1.5 -10.7
2020-01-27 10:00:00 1.6 6962 2.77 2.67 2.87 77.58 -2.5 -21.2
2020-01-27 11:00:00 1.2 7000 2.59 2.45 2.76 100 2.5 2.4
2020-01-27 12:00:00 0.6 7060 2.82 2.6 3.16 100 2.7 2.6
2020-01-27 13:00:00 0 7088 2.96 2.77 3.13 100 2.9 2.7
2020-01-27 14:00:00 0.6 7108 2.57 2.4 2.8 100 2.5 2.4